Flag for South Africa

Past Weather in Cape Town, South Africa — Yesterday and Last 2 Weeks

Currently: 75 °F. Sunny. (Weather station: Cape Town International Airport, South Africa). See more current weather

Past Weather in Cape Town — Graph

°F

Cape Town Temperature Yesterday

Maximum temperature yesterday: 73 °F (at 1:00 pm)
Minimum temperature yesterday: 63 °F (at 2:00 am)
Average temperature yesterday: 68 °F

High & Low Weather Summary for the Past Weeks

 TemperatureHumidityPressure
High90 °F (Jan 13, 2:00 pm)100% (Jan 23, 2:00 am)30.07 "Hg (Jan 23, 2:00 am)
Low61 °F (Jan 11, 3:00 am)39% (Jan 20, 10:00 am)29.65 "Hg (Jan 14, 4:00 pm)
Average71 °F68%29.86 "Hg
* Reported Jan 10 8:00 am — Jan 25 8:30 am, Cape Town. Weather by CustomWeather, © 2021

Note: Actual official high and low records may vary slightly from our data, if they occured in-between our weather recording intervals... More about our weather records

Cape Town Weather History for the Previous 24 Hours

Scroll right to see more
 ConditionsComfort  
Time TempWeatherWind HumidityBarometerVisibility
8:30 am
Mon, Jan 25
73 °FSunny.12 mph50%29.92 "Hg10 mi
8:02 am70 °FSunny.9 mph57%29.92 "Hg10 mi
7:00 am64 °FSunny.7 mph68%29.92 "Hg10 mi
6:53 am64 °FSunny.7 mph68%29.92 "Hg10 mi
6:00 am61 °FSunny.3 mph72%29.92 "Hg10 mi
5:00 am63 °FClear.8 mph73%29.89 "Hg10 mi
4:00 am63 °FClear.9 mph73%29.89 "Hg10 mi
3:00 am63 °FClear.10 mph73%29.92 "Hg10 mi
2:00 am64 °FPassing clouds.7 mph64%29.92 "HgN/A
1:00 am64 °FClear.5 mph64%29.95 "Hg10 mi
12:00 am64 °FClear.7 mph60%29.95 "Hg10 mi
11:00 pm
Sun, Jan 24
66 °FClear.10 mph56%29.95 "Hg10 mi
10:00 pm68 °FClear.14 mph56%29.95 "Hg10 mi
9:00 pm68 °FClear.20 mph56%29.95 "Hg10 mi
8:00 pm70 °FClear.24 mph53%29.95 "Hg10 mi
7:00 pm72 °FSunny.25 mph50%29.95 "Hg10 mi
6:00 pm72 °FSunny.28 mph50%29.92 "Hg10 mi
5:00 pm73 °FSunny.29 mph47%29.95 "Hg10 mi
4:00 pm73 °FSunny.31 mph47%29.95 "Hg10 mi
3:00 pm73 °FSunny.32 mph47%29.98 "Hg10 mi
2:00 pm73 °FSunny.33 mph47%30.01 "Hg10 mi
1:24 pm73 °FSunny.31 mph47%30.01 "Hg10 mi
1:00 pm73 °FPassing clouds.32 mph44%30.01 "HgN/A
12:00 pm72 °FPassing clouds.30 mph47%30.04 "HgN/A
11:00 am72 °FPassing clouds.25 mph47%30.07 "HgN/A
10:00 am70 °FPassing clouds.25 mph50%30.07 "HgN/A
Weather by CustomWeather, © 2021

See weather overview